sensor_id;sensor_type;location;lat;lon;timestamp;P1;durP1;ratioP1;P2;durP2;ratioP2
35562;SDS011;21665;40.108;18.302;2023-04-24T00:43:38;24.05;;;14.02;;
35562;SDS011;21665;40.108;18.302;2023-04-24T00:46:05;22.30;;;13.90;;
35562;SDS011;21665;40.108;18.302;2023-04-24T00:48:32;22.60;;;14.48;;
35562;SDS011;21665;40.108;18.302;2023-04-24T00:51:00;23.67;;;14.82;;
35562;SDS011;21665;40.108;18.302;2023-04-24T00:53:26;24.00;;;14.90;;
35562;SDS011;21665;40.108;18.302;2023-04-24T00:55:53;25.13;;;14.60;;
35562;SDS011;21665;40.108;18.302;2023-04-24T00:58:20;27.27;;;15.43;;
35562;SDS011;21665;40.108;18.302;2023-04-24T01:00:47;23.27;;;14.35;;
35562;SDS011;21665;40.108;18.302;2023-04-24T01:03:19;22.20;;;14.23;;
35562;SDS011;21665;40.108;18.302;2023-04-24T01:05:52;24.27;;;15.23;;
35562;SDS011;21665;40.108;18.302;2023-04-24T01:08:20;25.88;;;15.45;;
35562;SDS011;21665;40.108;18.302;2023-04-24T01:10:52;23.33;;;15.45;;
35562;SDS011;21665;40.108;18.302;2023-04-24T01:13:19;25.15;;;15.73;;
35562;SDS011;21665;40.108;18.302;2023-04-24T01:15:46;26.40;;;16.35;;
35562;SDS011;21665;40.108;18.302;2023-04-24T01:18:13;27.80;;;17.35;;
35562;SDS011;21665;40.108;18.302;2023-04-24T01:20:42;29.35;;;16.98;;
35562;SDS011;21665;40.108;18.302;2023-04-24T01:23:10;33.95;;;17.50;;
35562;SDS011;21665;40.108;18.302;2023-04-24T01:25:37;28.58;;;17.25;;
35562;SDS011;21665;40.108;18.302;2023-04-24T01:28:04;29.48;;;17.75;;
35562;SDS011;21665;40.108;18.302;2023-04-24T01:30:30;32.00;;;18.60;;
35562;SDS011;21665;40.108;18.302;2023-04-24T01:32:57;36.53;;;18.48;;
35562;SDS011;21665;40.108;18.302;2023-04-24T01:35:25;31.90;;;18.40;;
35562;SDS011;21665;40.108;18.302;2023-04-24T01:37:52;37.40;;;19.95;;
35562;SDS011;21665;40.108;18.302;2023-04-24T01:40:19;27.63;;;17.92;;
35562;SDS011;21665;40.108;18.302;2023-04-24T01:42:45;33.58;;;18.50;;
35562;SDS011;21665;40.108;18.302;2023-04-24T01:45:12;34.97;;;19.95;;
35562;SDS011;21665;40.108;18.302;2023-04-24T01:47:39;30.42;;;19.58;;
35562;SDS011;21665;40.108;18.302;2023-04-24T01:50:06;32.15;;;18.50;;
35562;SDS011;21665;40.108;18.302;2023-04-24T01:52:33;27.50;;;17.42;;
35562;SDS011;21665;40.108;18.302;2023-04-24T01:55:04;26.67;;;17.75;;
35562;SDS011;21665;40.108;18.302;2023-04-24T01:57:32;31.88;;;18.33;;
35562;SDS011;21665;40.108;18.302;2023-04-24T01:59:59;33.28;;;17.98;;
35562;SDS011;21665;40.108;18.302;2023-04-24T02:02:28;24.80;;;16.00;;
35562;SDS011;21665;40.108;18.302;2023-04-24T02:04:56;28.98;;;17.60;;
35562;SDS011;21665;40.108;18.302;2023-04-24T02:07:23;28.90;;;17.45;;
35562;SDS011;21665;40.108;18.302;2023-04-24T02:09:50;25.58;;;15.98;;
35562;SDS011;21665;40.108;18.302;2023-04-24T02:12:17;30.58;;;16.67;;
35562;SDS011;21665;40.108;18.302;2023-04-24T02:14:43;29.52;;;15.57;;
35562;SDS011;21665;40.108;18.302;2023-04-24T02:17:10;29.92;;;16.02;;
35562;SDS011;21665;40.108;18.302;2023-04-24T02:19:38;33.40;;;16.88;;
35562;SDS011;21665;40.108;18.302;2023-04-24T02:22:05;23.92;;;15.13;;
35562;SDS011;21665;40.108;18.302;2023-04-24T02:24:33;25.05;;;15.73;;
35562;SDS011;21665;40.108;18.302;2023-04-24T02:27:00;26.08;;;15.23;;
35562;SDS011;21665;40.108;18.302;2023-04-24T02:29:28;31.00;;;14.95;;
35562;SDS011;21665;40.108;18.302;2023-04-24T02:31:56;23.52;;;15.43;;
35562;SDS011;21665;40.108;18.302;2023-04-24T02:34:22;25.52;;;14.15;;
35562;SDS011;21665;40.108;18.302;2023-04-24T02:36:50;25.17;;;15.60;;
35562;SDS011;21665;40.108;18.302;2023-04-24T02:39:16;27.42;;;15.90;;
35562;SDS011;21665;40.108;18.302;2023-04-24T02:41:44;26.35;;;15.10;;
35562;SDS011;21665;40.108;18.302;2023-04-24T02:44:11;29.17;;;13.85;;
35562;SDS011;21665;40.108;18.302;2023-04-24T02:46:38;28.70;;;14.95;;
35562;SDS011;21665;40.108;18.302;2023-04-24T02:49:06;20.80;;;14.18;;
35562;SDS011;21665;40.108;18.302;2023-04-24T02:51:33;27.15;;;15.27;;
35562;SDS011;21665;40.108;18.302;2023-04-24T02:53:59;23.85;;;14.85;;
35562;SDS011;21665;40.108;18.302;2023-04-24T02:56:26;24.65;;;14.80;;
35562;SDS011;21665;40.108;18.302;2023-04-24T02:58:54;26.40;;;15.55;;
35562;SDS011;21665;40.108;18.302;2023-04-24T03:01:20;36.88;;;16.08;;
35562;SDS011;21665;40.108;18.302;2023-04-24T03:03:47;27.98;;;15.35;;
35562;SDS011;21665;40.108;18.302;2023-04-24T03:06:15;24.63;;;14.52;;
35562;SDS011;21665;40.108;18.302;2023-04-24T03:08:41;34.25;;;15.73;;
35562;SDS011;21665;40.108;18.302;2023-04-24T03:11:10;25.25;;;14.48;;
35562;SDS011;21665;40.108;18.302;2023-04-24T03:13:37;26.83;;;15.20;;
35562;SDS011;21665;40.108;18.302;2023-04-24T03:16:03;24.10;;;15.00;;
35562;SDS011;21665;40.108;18.302;2023-04-24T03:18:31;27.77;;;15.27;;
35562;SDS011;21665;40.108;18.302;2023-04-24T03:20:57;23.48;;;14.98;;
35562;SDS011;21665;40.108;18.302;2023-04-24T03:23:25;23.58;;;13.48;;
35562;SDS011;21665;40.108;18.302;2023-04-24T03:25:52;28.38;;;15.32;;
35562;SDS011;21665;40.108;18.302;2023-04-24T03:28:19;22.67;;;14.23;;
35562;SDS011;21665;40.108;18.302;2023-04-24T03:33:34;28.48;;;14.75;;
35562;SDS011;21665;40.108;18.302;2023-04-24T03:36:01;29.77;;;15.10;;
35562;SDS011;21665;40.108;18.302;2023-04-24T03:38:36;27.70;;;14.48;;
35562;SDS011;21665;40.108;18.302;2023-04-24T03:41:29;30.33;;;15.10;;
35562;SDS011;21665;40.108;18.302;2023-04-24T03:44:09;33.13;;;15.88;;
35562;SDS011;21665;40.108;18.302;2023-04-24T03:46:36;29.90;;;15.18;;
35562;SDS011;21665;40.108;18.302;2023-04-24T03:49:02;25.80;;;15.30;;
35562;SDS011;21665;40.108;18.302;2023-04-24T03:51:33;29.15;;;15.35;;
35562;SDS011;21665;40.108;18.302;2023-04-24T03:54:09;28.98;;;14.63;;
35562;SDS011;21665;40.108;18.302;2023-04-24T03:56:38;27.48;;;14.90;;
35562;SDS011;21665;40.108;18.302;2023-04-24T03:59:05;30.05;;;15.00;;
35562;SDS011;21665;40.108;18.302;2023-04-24T04:01:37;32.70;;;15.50;;
35562;SDS011;21665;40.108;18.302;2023-04-24T04:04:13;27.95;;;15.02;;
35562;SDS011;21665;40.108;18.302;2023-04-24T04:06:42;30.25;;;15.40;;
35562;SDS011;21665;40.108;18.302;2023-04-24T04:09:10;27.05;;;15.13;;
35562;SDS011;21665;40.108;18.302;2023-04-24T04:11:36;28.35;;;15.27;;
35562;SDS011;21665;40.108;18.302;2023-04-24T04:14:03;28.17;;;14.90;;
35562;SDS011;21665;40.108;18.302;2023-04-24T04:16:32;21.95;;;13.85;;
35562;SDS011;21665;40.108;18.302;2023-04-24T04:19:02;29.15;;;14.18;;
35562;SDS011;21665;40.108;18.302;2023-04-24T04:21:29;28.52;;;14.10;;
35562;SDS011;21665;40.108;18.302;2023-04-24T04:24:08;23.80;;;13.02;;
35562;SDS011;21665;40.108;18.302;2023-04-24T04:26:42;23.98;;;13.55;;
35562;SDS011;21665;40.108;18.302;2023-04-24T04:29:20;28.08;;;13.27;;
35562;SDS011;21665;40.108;18.302;2023-04-24T04:31:50;26.33;;;12.93;;
35562;SDS011;21665;40.108;18.302;2023-04-24T04:34:17;21.30;;;13.10;;
35562;SDS011;21665;40.108;18.302;2023-04-24T04:36:45;28.23;;;13.40;;
35562;SDS011;21665;40.108;18.302;2023-04-24T04:39:35;22.40;;;12.60;;
35562;SDS011;21665;40.108;18.302;2023-04-24T04:42:05;20.55;;;11.07;;
35562;SDS011;21665;40.108;18.302;2023-04-24T04:44:39;18.35;;;10.82;;
35562;SDS011;21665;40.108;18.302;2023-04-24T04:47:11;21.95;;;10.68;;
35562;SDS011;21665;40.108;18.302;2023-04-24T04:49:39;20.65;;;10.52;;
35562;SDS011;21665;40.108;18.302;2023-04-24T04:52:15;17.38;;;10.00;;
35562;SDS011;21665;40.108;18.302;2023-04-24T04:54:44;16.60;;;9.65;;
35562;SDS011;21665;40.108;18.302;2023-04-24T04:57:12;23.55;;;10.43;;
35562;SDS011;21665;40.108;18.302;2023-04-24T04:59:39;13.10;;;9.45;;
35562;SDS011;21665;40.108;18.302;2023-04-24T05:02:12;16.02;;;8.98;;
35562;SDS011;21665;40.108;18.302;2023-04-24T05:04:39;20.67;;;9.70;;
35562;SDS011;21665;40.108;18.302;2023-04-24T05:07:06;14.18;;;8.57;;
35562;SDS011;21665;40.108;18.302;2023-04-24T05:09:37;17.98;;;8.75;;
35562;SDS011;21665;40.108;18.302;2023-04-24T05:12:05;20.40;;;9.05;;
35562;SDS011;21665;40.108;18.302;2023-04-24T05:14:38;18.00;;;9.63;;
35562;SDS011;21665;40.108;18.302;2023-04-24T05:17:05;13.48;;;8.55;;
35562;SDS011;21665;40.108;18.302;2023-04-24T05:19:32;13.93;;;8.98;;
35562;SDS011;21665;40.108;18.302;2023-04-24T05:22:01;20.92;;;10.23;;
35562;SDS011;21665;40.108;18.302;2023-04-24T05:24:32;17.50;;;8.93;;
35562;SDS011;21665;40.108;18.302;2023-04-24T05:27:17;22.00;;;9.93;;
35562;SDS011;21665;40.108;18.302;2023-04-24T05:29:44;21.00;;;7.93;;
35562;SDS011;21665;40.108;18.302;2023-04-24T05:32:11;41.90;;;12.73;;
35562;SDS011;21665;40.108;18.302;2023-04-24T05:34:37;32.83;;;14.05;;
35562;SDS011;21665;40.108;18.302;2023-04-24T05:37:04;20.60;;;15.23;;
35562;SDS011;21665;40.108;18.302;2023-04-24T05:39:34;19.33;;;14.15;;
35562;SDS011;21665;40.108;18.302;2023-04-24T05:42:01;16.17;;;14.50;;
35562;SDS011;21665;40.108;18.302;2023-04-24T05:44:28;17.60;;;15.52;;
35562;SDS011;21665;40.108;18.302;2023-04-24T05:46:55;17.25;;;15.65;;
35562;SDS011;21665;40.108;18.302;2023-04-24T05:49:23;18.10;;;16.27;;
35562;SDS011;21665;40.108;18.302;2023-04-24T05:51:50;20.27;;;17.40;;
35562;SDS011;21665;40.108;18.302;2023-04-24T05:54:17;19.73;;;16.50;;
35562;SDS011;21665;40.108;18.302;2023-04-24T05:56:43;18.33;;;16.58;;
35562;SDS011;21665;40.108;18.302;2023-04-24T05:59:18;18.00;;;16.38;;
35562;SDS011;21665;40.108;18.302;2023-04-24T06:01:45;18.48;;;16.15;;
35562;SDS011;21665;40.108;18.302;2023-04-24T06:04:19;22.05;;;16.10;;
35562;SDS011;21665;40.108;18.302;2023-04-24T06:06:45;17.45;;;15.65;;
35562;SDS011;21665;40.108;18.302;2023-04-24T06:09:17;21.85;;;16.40;;
35562;SDS011;21665;40.108;18.302;2023-04-24T06:11:44;18.23;;;16.00;;
35562;SDS011;21665;40.108;18.302;2023-04-24T06:14:13;17.40;;;15.88;;
35562;SDS011;21665;40.108;18.302;2023-04-24T06:17:06;18.58;;;16.95;;
35562;SDS011;21665;40.108;18.302;2023-04-24T06:19:37;18.35;;;16.80;;
35562;SDS011;21665;40.108;18.302;2023-04-24T06:22:04;18.92;;;17.25;;
35562;SDS011;21665;40.108;18.302;2023-04-24T06:24:30;20.23;;;18.40;;
35562;SDS011;21665;40.108;18.302;2023-04-24T06:26:57;20.25;;;18.42;;
35562;SDS011;21665;40.108;18.302;2023-04-24T06:29:25;19.70;;;17.58;;
35562;SDS011;21665;40.108;18.302;2023-04-24T06:31:52;19.73;;;17.90;;
35562;SDS011;21665;40.108;18.302;2023-04-24T06:34:19;19.63;;;17.95;;
35562;SDS011;21665;40.108;18.302;2023-04-24T06:36:46;20.50;;;18.45;;
35562;SDS011;21665;40.108;18.302;2023-04-24T06:39:13;19.45;;;17.98;;
35562;SDS011;21665;40.108;18.302;2023-04-24T06:41:40;20.70;;;18.45;;
35562;SDS011;21665;40.108;18.302;2023-04-24T06:44:08;20.73;;;18.85;;
35562;SDS011;21665;40.108;18.302;2023-04-24T06:46:35;19.88;;;18.17;;
35562;SDS011;21665;40.108;18.302;2023-04-24T06:49:02;19.73;;;17.83;;
35562;SDS011;21665;40.108;18.302;2023-04-24T06:51:28;18.48;;;17.00;;
35562;SDS011;21665;40.108;18.302;2023-04-24T06:53:56;19.98;;;18.20;;
35562;SDS011;21665;40.108;18.302;2023-04-24T06:56:22;20.63;;;18.48;;
35562;SDS011;21665;40.108;18.302;2023-04-24T06:58:49;20.55;;;18.38;;
35562;SDS011;21665;40.108;18.302;2023-04-24T07:01:17;24.63;;;18.75;;
35562;SDS011;21665;40.108;18.302;2023-04-24T07:03:43;20.02;;;18.10;;
35562;SDS011;21665;40.108;18.302;2023-04-24T07:06:09;20.27;;;18.30;;
35562;SDS011;21665;40.108;18.302;2023-04-24T07:08:37;20.60;;;18.60;;
35562;SDS011;21665;40.108;18.302;2023-04-24T07:11:03;20.55;;;18.48;;
35562;SDS011;21665;40.108;18.302;2023-04-24T07:13:31;21.27;;;17.45;;
35562;SDS011;21665;40.108;18.302;2023-04-24T07:16:01;19.63;;;17.77;;
35562;SDS011;21665;40.108;18.302;2023-04-24T07:18:27;19.70;;;17.98;;
35562;SDS011;21665;40.108;18.302;2023-04-24T07:20:54;19.02;;;17.52;;
35562;SDS011;21665;40.108;18.302;2023-04-24T07:23:20;19.10;;;17.45;;
35562;SDS011;21665;40.108;18.302;2023-04-24T07:25:47;19.55;;;18.05;;
35562;SDS011;21665;40.108;18.302;2023-04-24T07:28:13;19.00;;;17.50;;
35562;SDS011;21665;40.108;18.302;2023-04-24T07:30:40;19.85;;;17.83;;
35562;SDS011;21665;40.108;18.302;2023-04-24T07:33:07;20.70;;;18.42;;
35562;SDS011;21665;40.108;18.302;2023-04-24T07:35:36;20.33;;;18.17;;
35562;SDS011;21665;40.108;18.302;2023-04-24T18:33:07;21.58;;;18.92;;
35562;SDS011;21665;40.108;18.302;2023-04-24T18:35:34;19.88;;;17.98;;
35562;SDS011;21665;40.108;18.302;2023-04-24T18:38:00;22.83;;;18.45;;
35562;SDS011;21665;40.108;18.302;2023-04-24T18:40:27;20.10;;;18.15;;
35562;SDS011;21665;40.108;18.302;2023-04-24T18:42:54;21.77;;;18.75;;
35562;SDS011;21665;40.108;18.302;2023-04-24T18:45:21;21.83;;;19.63;;
35562;SDS011;21665;40.108;18.302;2023-04-24T18:47:48;23.60;;;21.02;;
35562;SDS011;21665;40.108;18.302;2023-04-24T18:50:14;22.73;;;20.40;;
35562;SDS011;21665;40.108;18.302;2023-04-24T18:52:41;22.25;;;19.98;;
35562;SDS011;21665;40.108;18.302;2023-04-24T18:55:08;22.33;;;20.13;;
35562;SDS011;21665;40.108;18.302;2023-04-24T18:57:34;28.67;;;19.92;;
35562;SDS011;21665;40.108;18.302;2023-04-24T19:00:01;21.65;;;19.45;;
35562;SDS011;21665;40.108;18.302;2023-04-24T19:02:29;22.50;;;19.13;;
35562;SDS011;21665;40.108;18.302;2023-04-24T19:04:55;20.77;;;19.13;;
35562;SDS011;21665;40.108;18.302;2023-04-24T19:07:22;20.80;;;18.63;;
35562;SDS011;21665;40.108;18.302;2023-04-24T19:09:52;21.65;;;18.98;;
35562;SDS011;21665;40.108;18.302;2023-04-24T19:12:21;20.20;;;18.17;;
35562;SDS011;21665;40.108;18.302;2023-04-24T19:14:51;21.52;;;19.30;;
35562;SDS011;21665;40.108;18.302;2023-04-24T19:17:20;22.48;;;20.08;;
35562;SDS011;21665;40.108;18.302;2023-04-24T19:19:50;20.02;;;18.20;;
35562;SDS011;21665;40.108;18.302;2023-04-24T19:22:17;25.63;;;19.60;;
35562;SDS011;21665;40.108;18.302;2023-04-24T19:24:44;20.58;;;18.35;;
35562;SDS011;21665;40.108;18.302;2023-04-24T19:27:12;19.77;;;18.08;;
35562;SDS011;21665;40.108;18.302;2023-04-24T19:29:38;18.98;;;17.38;;
35562;SDS011;21665;40.108;18.302;2023-04-24T19:32:06;25.77;;;18.10;;
35562;SDS011;21665;40.108;18.302;2023-04-24T19:34:33;20.17;;;18.00;;
35562;SDS011;21665;40.108;18.302;2023-04-24T19:37:00;18.98;;;17.15;;
35562;SDS011;21665;40.108;18.302;2023-04-24T19:39:26;25.02;;;17.98;;
35562;SDS011;21665;40.108;18.302;2023-04-24T19:41:53;25.13;;;17.50;;
35562;SDS011;21665;40.108;18.302;2023-04-24T19:44:21;20.65;;;17.48;;
35562;SDS011;21665;40.108;18.302;2023-04-24T19:46:50;19.13;;;17.05;;
35562;SDS011;21665;40.108;18.302;2023-04-24T19:49:17;30.75;;;18.42;;
35562;SDS011;21665;40.108;18.302;2023-04-24T19:51:43;19.20;;;17.20;;
35562;SDS011;21665;40.108;18.302;2023-04-24T19:54:10;24.27;;;18.13;;
35562;SDS011;21665;40.108;18.302;2023-04-24T19:56:36;25.55;;;18.17;;
35562;SDS011;21665;40.108;18.302;2023-04-24T19:59:03;29.02;;;21.15;;
35562;SDS011;21665;40.108;18.302;2023-04-24T20:01:30;22.63;;;20.00;;
35562;SDS011;21665;40.108;18.302;2023-04-24T20:03:57;23.73;;;18.92;;
35562;SDS011;21665;40.108;18.302;2023-04-24T20:06:24;24.02;;;18.13;;
35562;SDS011;21665;40.108;18.302;2023-04-24T20:08:50;29.77;;;21.10;;
35562;SDS011;21665;40.108;18.302;2023-04-24T20:11:17;22.75;;;20.30;;
35562;SDS011;21665;40.108;18.302;2023-04-24T20:13:44;22.10;;;20.02;;
35562;SDS011;21665;40.108;18.302;2023-04-24T20:16:11;22.08;;;19.77;;
35562;SDS011;21665;40.108;18.302;2023-04-24T20:18:37;25.85;;;18.75;;
35562;SDS011;21665;40.108;18.302;2023-04-24T20:21:04;21.27;;;18.08;;
35562;SDS011;21665;40.108;18.302;2023-04-24T20:23:31;20.10;;;18.10;;
35562;SDS011;21665;40.108;18.302;2023-04-24T20:25:57;20.25;;;17.70;;
35562;SDS011;21665;40.108;18.302;2023-04-24T20:28:30;22.25;;;18.05;;
35562;SDS011;21665;40.108;18.302;2023-04-24T20:30:57;18.85;;;17.13;;
35562;SDS011;21665;40.108;18.302;2023-04-24T20:33:24;19.27;;;17.40;;
35562;SDS011;21665;40.108;18.302;2023-04-24T20:35:52;19.58;;;17.50;;
35562;SDS011;21665;40.108;18.302;2023-04-24T20:38:19;20.23;;;17.65;;
35562;SDS011;21665;40.108;18.302;2023-04-24T20:40:50;19.92;;;17.80;;
35562;SDS011;21665;40.108;18.302;2023-04-24T20:43:16;19.90;;;17.90;;
35562;SDS011;21665;40.108;18.302;2023-04-24T20:45:43;20.90;;;18.67;;
35562;SDS011;21665;40.108;18.302;2023-04-24T20:48:09;21.80;;;18.92;;
35562;SDS011;21665;40.108;18.302;2023-04-24T20:50:40;20.63;;;18.45;;
35562;SDS011;21665;40.108;18.302;2023-04-24T20:53:07;23.33;;;17.83;;
35562;SDS011;21665;40.108;18.302;2023-04-24T20:55:36;22.15;;;17.67;;
35562;SDS011;21665;40.108;18.302;2023-04-24T20:58:03;20.00;;;17.88;;
35562;SDS011;21665;40.108;18.302;2023-04-24T21:00:32;19.50;;;17.45;;
35562;SDS011;21665;40.108;18.302;2023-04-24T21:02:59;19.85;;;17.85;;
35562;SDS011;21665;40.108;18.302;2023-04-24T21:05:25;19.27;;;17.77;;
35562;SDS011;21665;40.108;18.302;2023-04-24T21:07:52;19.45;;;17.58;;
35562;SDS011;21665;40.108;18.302;2023-04-24T21:10:21;18.67;;;17.20;;
35562;SDS011;21665;40.108;18.302;2023-04-24T21:12:49;18.60;;;16.92;;
35562;SDS011;21665;40.108;18.302;2023-04-24T21:15:16;18.42;;;16.95;;
35562;SDS011;21665;40.108;18.302;2023-04-24T21:17:42;19.52;;;17.15;;
35562;SDS011;21665;40.108;18.302;2023-04-24T21:20:10;18.20;;;16.63;;
35562;SDS011;21665;40.108;18.302;2023-04-24T21:22:36;17.73;;;16.63;;
35562;SDS011;21665;40.108;18.302;2023-04-24T21:25:03;17.13;;;16.10;;
35562;SDS011;21665;40.108;18.302;2023-04-24T21:27:29;17.55;;;16.02;;
35562;SDS011;21665;40.108;18.302;2023-04-24T21:29:56;16.83;;;15.60;;
35562;SDS011;21665;40.108;18.302;2023-04-24T21:32:22;16.83;;;15.75;;
35562;SDS011;21665;40.108;18.302;2023-04-24T21:34:49;17.83;;;16.48;;
35562;SDS011;21665;40.108;18.302;2023-04-24T21:37:15;17.70;;;16.50;;
35562;SDS011;21665;40.108;18.302;2023-04-24T21:39:42;17.85;;;16.42;;
35562;SDS011;21665;40.108;18.302;2023-04-24T21:42:08;18.73;;;17.25;;
35562;SDS011;21665;40.108;18.302;2023-04-24T21:44:35;20.80;;;18.55;;
35562;SDS011;21665;40.108;18.302;2023-04-24T21:47:01;19.20;;;17.60;;
35562;SDS011;21665;40.108;18.302;2023-04-24T21:49:27;19.75;;;17.75;;
35562;SDS011;21665;40.108;18.302;2023-04-24T21:51:54;18.23;;;16.67;;
35562;SDS011;21665;40.108;18.302;2023-04-24T21:54:20;18.10;;;16.70;;
35562;SDS011;21665;40.108;18.302;2023-04-24T21:56:46;18.05;;;16.67;;
35562;SDS011;21665;40.108;18.302;2023-04-24T21:59:13;17.90;;;16.60;;
35562;SDS011;21665;40.108;18.302;2023-04-24T22:01:39;18.30;;;16.92;;
35562;SDS011;21665;40.108;18.302;2023-04-24T22:04:06;18.67;;;17.17;;
35562;SDS011;21665;40.108;18.302;2023-04-24T22:06:32;18.13;;;16.75;;
35562;SDS011;21665;40.108;18.302;2023-04-24T22:08:59;18.45;;;17.02;;
35562;SDS011;21665;40.108;18.302;2023-04-24T22:11:26;18.23;;;16.67;;
35562;SDS011;21665;40.108;18.302;2023-04-24T22:13:53;18.02;;;16.50;;
35562;SDS011;21665;40.108;18.302;2023-04-24T22:16:20;18.10;;;16.67;;
35562;SDS011;21665;40.108;18.302;2023-04-24T22:18:53;18.85;;;17.02;;
35562;SDS011;21665;40.108;18.302;2023-04-24T23:17:48;18.17;;;16.52;;
35562;SDS011;21665;40.108;18.302;2023-04-24T23:20:15;18.33;;;16.63;;
35562;SDS011;21665;40.108;18.302;2023-04-24T23:22:44;18.15;;;16.67;;
35562;SDS011;21665;40.108;18.302;2023-04-24T23:25:11;17.95;;;16.42;;
35562;SDS011;21665;40.108;18.302;2023-04-24T23:27:37;18.77;;;17.08;;
35562;SDS011;21665;40.108;18.302;2023-04-24T23:30:03;18.80;;;17.05;;
35562;SDS011;21665;40.108;18.302;2023-04-24T23:32:31;18.50;;;16.63;;
35562;SDS011;21665;40.108;18.302;2023-04-24T23:34:57;19.23;;;17.40;;
35562;SDS011;21665;40.108;18.302;2023-04-24T23:37:24;20.15;;;17.17;;
35562;SDS011;21665;40.108;18.302;2023-04-24T23:39:50;19.50;;;17.50;;
35562;SDS011;21665;40.108;18.302;2023-04-24T23:42:17;18.35;;;16.70;;
35562;SDS011;21665;40.108;18.302;2023-04-24T23:44:44;18.35;;;16.75;;
35562;SDS011;21665;40.108;18.302;2023-04-24T23:47:10;18.02;;;16.73;;
35562;SDS011;21665;40.108;18.302;2023-04-24T23:49:36;18.33;;;16.98;;
35562;SDS011;21665;40.108;18.302;2023-04-24T23:52:03;18.77;;;17.38;;
35562;SDS011;21665;40.108;18.302;2023-04-24T23:54:33;18.83;;;17.05;;
35562;SDS011;21665;40.108;18.302;2023-04-24T23:56:59;18.60;;;17.10;;
35562;SDS011;21665;40.108;18.302;2023-04-24T23:59:26;19.13;;;17.35;;
